createdAt,value
2022-10-18T00:00:50.142Z,55.22
2022-10-18T00:03:17.235Z,37.85
2022-10-18T00:05:44.315Z,52.95
2022-10-18T00:08:11.402Z,65.57
2022-10-18T00:10:38.435Z,52.97
2022-10-18T00:13:05.490Z,44.28
2022-10-18T00:15:32.531Z,48.30
2022-10-18T00:17:59.703Z,46.25
2022-10-18T00:20:26.884Z,57.13
2022-10-18T00:22:53.985Z,57.30
2022-10-18T00:25:21.036Z,57.33
2022-10-18T00:27:48.102Z,31.55
2022-10-18T00:30:15.188Z,52.65
2022-10-18T00:32:42.941Z,44.10
2022-10-18T00:35:10.079Z,55.92
2022-10-18T00:37:37.380Z,72.60
2022-10-18T00:40:04.994Z,60.17
2022-10-18T00:42:34.672Z,46.78
2022-10-18T00:45:06.505Z,78.85
2022-10-18T00:47:35.722Z,48.90
2022-10-18T00:50:03.581Z,33.05
2022-10-18T00:52:40.966Z,42.83
2022-10-18T00:55:08.387Z,35.30
2022-10-18T00:57:35.924Z,28.77
2022-10-18T01:00:07.403Z,34.97
2022-10-18T01:02:34.480Z,32.58
2022-10-18T01:05:01.548Z,19.35
2022-10-18T01:07:28.817Z,35.10
2022-10-18T01:10:03.902Z,24.98
2022-10-18T01:12:34.040Z,30.60
2022-10-18T01:15:06.874Z,32.22
2022-10-18T01:17:40.070Z,38.80
2022-10-18T01:20:44.100Z,40.83
2022-10-18T01:23:11.128Z,35.97
2022-10-18T01:25:46.533Z,78.78
2022-10-18T01:28:36.363Z,51.40
2022-10-18T01:31:20.514Z,48.95
2022-10-18T01:33:54.049Z,54.35
2022-10-18T01:36:24.020Z,48.60
2022-10-18T01:38:53.389Z,50.67
2022-10-18T01:41:21.207Z,65.07
2022-10-18T01:43:50.130Z,28.92
2022-10-18T01:46:20.041Z,42.15
2022-10-18T01:48:47.531Z,42.47
2022-10-18T01:51:14.630Z,31.55
2022-10-18T01:53:41.864Z,24.75
2022-10-18T01:56:29.186Z,23.23
2022-10-18T01:59:01.291Z,40.17
2022-10-18T02:01:31.273Z,33.83
2022-10-18T02:04:04.232Z,21.13
2022-10-18T02:09:11.399Z,15.82
2022-10-18T02:11:39.139Z,15.10
2022-10-18T02:14:11.790Z,15.02
2022-10-18T02:16:41.374Z,15.02
2022-10-18T02:19:14.729Z,18.20
2022-10-18T02:21:43.631Z,16.63
2022-10-18T02:24:11.882Z,16.58
2022-10-18T02:26:39.145Z,15.95
2022-10-18T02:29:06.367Z,14.82
2022-10-18T02:31:36.827Z,17.80
2022-10-18T02:34:03.851Z,15.73
2022-10-18T02:36:34.156Z,14.68
2022-10-18T02:39:03.962Z,15.23
2022-10-18T02:41:31.790Z,15.27
2022-10-18T02:43:58.846Z,17.42
2022-10-18T02:48:54.032Z,15.48
2022-10-18T02:51:21.095Z,13.57
2022-10-18T02:54:03.801Z,13.55
2022-10-18T02:56:30.859Z,14.43
2022-10-18T02:58:57.912Z,13.13
2022-10-18T03:01:25.134Z,16.88
2022-10-18T03:03:52.230Z,15.32
2022-10-18T03:06:19.406Z,15.35
2022-10-18T03:08:46.446Z,15.10
2022-10-18T03:11:13.520Z,14.15
2022-10-18T03:13:40.585Z,13.95
2022-10-18T03:16:07.700Z,14.27
2022-10-18T03:18:34.772Z,14.55
2022-10-18T03:21:05.603Z,14.57
2022-10-18T03:23:32.759Z,14.50
2022-10-18T03:25:59.852Z,13.70
2022-10-18T03:28:26.959Z,13.52
2022-10-18T03:30:54.045Z,13.88
2022-10-18T03:33:21.095Z,13.98
2022-10-18T03:35:48.142Z,13.10
2022-10-18T03:38:15.243Z,13.50
2022-10-18T03:40:42.280Z,14.05
2022-10-18T03:43:09.317Z,14.07
2022-10-18T03:45:36.360Z,15.68
2022-10-18T03:48:03.398Z,13.50
2022-10-18T03:50:30.455Z,12.98
2022-10-18T03:52:57.533Z,17.83
2022-10-18T03:55:24.611Z,15.95
2022-10-18T03:57:51.665Z,16.05
2022-10-18T04:00:18.730Z,20.85
2022-10-18T04:02:45.808Z,18.80
2022-10-18T04:05:14.028Z,14.57
2022-10-18T04:07:41.152Z,24.08
2022-10-18T04:10:08.562Z,25.27
2022-10-18T04:12:35.816Z,23.38
2022-10-18T04:15:03.221Z,19.92
2022-10-18T04:17:30.566Z,21.08
2022-10-18T04:19:57.809Z,20.83
2022-10-18T04:22:24.879Z,19.08
2022-10-18T04:24:53.278Z,21.75
2022-10-18T04:27:20.498Z,24.15
2022-10-18T04:29:47.561Z,22.20
2022-10-18T04:32:14.619Z,17.23
2022-10-18T04:37:13.780Z,18.75
2022-10-18T04:39:40.891Z,18.88
2022-10-18T04:42:07.929Z,23.40
2022-10-18T04:44:35.035Z,19.48
2022-10-18T04:47:02.062Z,20.13
2022-10-18T04:49:29.086Z,19.48
2022-10-18T04:51:56.173Z,19.30
2022-10-18T04:54:25.202Z,18.27
2022-10-18T04:56:54.945Z,18.05
2022-10-18T04:59:22.009Z,16.20
2022-10-18T05:01:49.113Z,22.23
2022-10-18T05:04:16.305Z,15.63
2022-10-18T05:06:43.326Z,16.88
2022-10-18T05:09:10.503Z,15.48
2022-10-18T05:11:37.534Z,16.60
2022-10-18T05:14:04.848Z,16.75
2022-10-18T05:16:32.987Z,17.58
2022-10-18T05:19:00.051Z,22.02
2022-10-18T05:21:27.086Z,15.15
2022-10-18T05:23:57.076Z,18.58
2022-10-18T05:26:24.148Z,22.55
2022-10-18T05:28:51.331Z,39.25
2022-10-18T05:31:18.698Z,73.93
2022-10-18T05:33:45.749Z,44.33
2022-10-18T05:36:12.875Z,47.65
2022-10-18T05:38:43.923Z,60.08
2022-10-18T05:41:11.103Z,72.70
2022-10-18T05:43:38.352Z,49.63
2022-10-18T05:46:11.879Z,57.47
2022-10-18T05:48:40.950Z,40.78
2022-10-18T05:51:07.983Z,35.60
2022-10-18T05:53:37.522Z,40.20
2022-10-18T05:56:05.535Z,46.95
2022-10-18T05:58:32.663Z,53.53
2022-10-18T06:01:00.791Z,41.90
2022-10-18T06:03:28.313Z,40.35
2022-10-18T06:06:00.175Z,46.50
2022-10-18T06:08:27.572Z,62.80
2022-10-18T06:10:54.802Z,34.47
2022-10-18T06:13:21.906Z,35.53
2022-10-18T06:15:49.203Z,39.28
2022-10-18T06:18:16.396Z,46.72
2022-10-18T06:20:43.434Z,48.25
2022-10-18T06:23:10.550Z,48.13
2022-10-18T06:25:37.619Z,47.33
2022-10-18T06:28:07.803Z,51.00
2022-10-18T06:30:37.302Z,38.75
2022-10-18T06:33:04.360Z,38.03
2022-10-18T06:35:31.441Z,29.23
2022-10-18T06:37:58.482Z,40.20
2022-10-18T06:40:25.530Z,38.45
2022-10-18T06:43:00.121Z,25.35
2022-10-18T06:45:27.730Z,22.52
2022-10-18T06:47:54.789Z,23.10
2022-10-18T06:50:21.827Z,15.05
2022-10-18T06:52:51.046Z,16.50
2022-10-18T06:55:18.071Z,19.08
2022-10-18T06:57:45.107Z,17.50
2022-10-18T07:00:12.515Z,16.17
2022-10-18T07:02:41.186Z,14.48
2022-10-18T07:05:09.285Z,12.15
2022-10-18T07:07:36.561Z,13.27
2022-10-18T07:10:04.204Z,10.82
2022-10-18T07:12:31.648Z,10.82
2022-10-18T07:14:58.769Z,11.02
2022-10-18T07:17:25.992Z,12.13
2022-10-18T07:19:53.054Z,12.18
2022-10-18T07:22:20.105Z,14.30
2022-10-18T07:24:47.143Z,12.98
2022-10-18T07:27:14.189Z,14.93
2022-10-18T07:29:41.238Z,13.10
2022-10-18T07:32:08.356Z,14.80
2022-10-18T07:34:35.403Z,14.32
2022-10-18T07:37:02.870Z,15.50
2022-10-18T07:39:29.904Z,13.68
2022-10-18T07:41:57.002Z,10.95
2022-10-18T07:44:24.056Z,14.43
2022-10-18T07:46:51.118Z,12.88
2022-10-18T07:49:18.252Z,13.63
2022-10-18T07:51:45.312Z,13.00
2022-10-18T07:54:12.375Z,13.98
2022-10-18T07:56:39.403Z,14.05
2022-10-18T07:59:06.438Z,13.77
2022-10-18T08:01:34.908Z,11.82
2022-10-18T08:04:06.992Z,14.98
2022-10-18T08:06:35.006Z,13.00
2022-10-18T08:09:02.118Z,14.73
2022-10-18T08:11:29.223Z,17.42
2022-10-18T08:13:56.275Z,13.88
2022-10-18T08:16:24.512Z,17.83
2022-10-18T08:18:51.624Z,14.40
2022-10-18T08:21:19.184Z,20.80
2022-10-18T08:23:46.275Z,8.98
2022-10-18T08:26:14.590Z,11.10
2022-10-18T08:28:46.178Z,15.38
2022-10-18T08:31:21.449Z,13.55
2022-10-18T08:33:48.789Z,11.15
2022-10-18T08:36:16.602Z,14.65
2022-10-18T08:38:44.054Z,15.02
2022-10-18T08:41:43.471Z,13.45
2022-10-18T08:44:23.975Z,15.77
2022-10-18T08:46:52.525Z,10.02
2022-10-18T08:49:32.562Z,9.68
2022-10-18T08:51:59.880Z,13.05
2022-10-18T08:54:33.160Z,9.07
2022-10-18T08:57:02.046Z,12.40
2022-10-18T08:59:35.188Z,10.23
2022-10-18T09:02:06.253Z,10.85
2022-10-18T09:04:39.111Z,9.13
2022-10-18T09:07:06.133Z,8.65
2022-10-18T09:09:41.172Z,10.82
2022-10-18T09:12:08.249Z,10.82
2022-10-18T09:14:35.276Z,8.88
2022-10-18T09:17:17.535Z,10.32
2022-10-18T09:19:55.005Z,11.95
2022-10-18T09:22:38.928Z,9.05
2022-10-18T09:25:19.032Z,7.10
2022-10-18T09:28:26.948Z,10.43
2022-10-18T09:31:26.615Z,9.38
2022-10-18T09:33:56.468Z,9.73
2022-10-18T09:36:24.895Z,6.97
2022-10-18T09:38:56.147Z,10.07
2022-10-18T09:41:40.884Z,5.47
2022-10-18T09:44:22.630Z,8.38
2022-10-18T09:46:51.376Z,7.32
2022-10-18T09:49:22.600Z,7.35
2022-10-18T09:51:50.382Z,7.75
2022-10-18T09:54:35.775Z,8.23
2022-10-18T09:57:09.680Z,8.48
2022-10-18T09:59:43.429Z,4.57
2022-10-18T10:02:14.848Z,11.57
2022-10-18T10:04:41.991Z,5.85
2022-10-18T10:07:12.338Z,8.43
2022-10-18T10:09:46.213Z,9.27
2022-10-18T10:12:48.839Z,5.72
2022-10-18T10:15:22.609Z,7.47
2022-10-18T10:18:00.681Z,4.78
2022-10-18T10:20:44.140Z,5.85
2022-10-18T10:23:22.263Z,2.88
2022-10-18T10:25:53.077Z,6.32
2022-10-18T10:28:24.685Z,5.68
2022-10-18T10:30:51.879Z,6.45
2022-10-18T10:33:38.398Z,4.78
2022-10-18T10:36:07.076Z,10.13
2022-10-18T10:38:34.276Z,6.13
2022-10-18T10:41:01.431Z,5.00
2022-10-18T10:43:43.776Z,3.78
2022-10-18T10:46:12.587Z,5.68
2022-10-18T10:48:47.736Z,7.20
2022-10-18T10:51:16.440Z,3.88
2022-10-18T10:53:58.768Z,10.75
2022-10-18T10:57:05.270Z,2.58
2022-10-18T10:59:42.651Z,5.15
2022-10-18T11:02:18.623Z,7.80
2022-10-18T11:04:46.733Z,5.32
2022-10-18T11:07:16.544Z,7.15
2022-10-18T11:09:51.275Z,7.72
2022-10-18T11:12:21.026Z,6.07
2022-10-18T11:14:51.807Z,6.80
2022-10-18T11:17:23.104Z,6.25
2022-10-18T11:19:50.116Z,4.65
2022-10-18T11:22:21.978Z,6.43
2022-10-18T11:24:49.078Z,8.15
2022-10-18T11:27:24.243Z,7.78
2022-10-18T11:30:12.331Z,4.35
2022-10-18T11:32:46.803Z,3.58
2022-10-18T11:35:24.786Z,4.85
2022-10-18T11:37:58.196Z,6.63
2022-10-18T11:40:33.488Z,4.72
2022-10-18T11:43:12.709Z,3.67
2022-10-18T11:45:39.792Z,4.88
2022-10-18T11:48:22.836Z,4.68
2022-10-18T11:51:08.378Z,5.03
2022-10-18T11:56:21.813Z,4.97
2022-10-18T11:58:57.920Z,4.07
2022-10-18T12:01:29.396Z,3.92
2022-10-18T12:03:59.259Z,3.28
2022-10-18T12:06:30.573Z,7.03
2022-10-18T12:09:02.576Z,5.53
2022-10-18T12:11:34.223Z,10.60
2022-10-18T12:14:04.841Z,4.82
2022-10-18T12:16:50.350Z,7.43
2022-10-18T12:19:23.710Z,4.90
2022-10-18T12:21:54.523Z,4.80
2022-10-18T12:24:23.247Z,5.68
2022-10-18T12:26:54.074Z,7.63
2022-10-18T12:29:26.815Z,5.03
2022-10-18T12:31:58.387Z,6.20
2022-10-18T12:34:25.415Z,3.65
2022-10-18T12:37:15.348Z,3.90
2022-10-18T12:40:09.052Z,4.15
2022-10-18T12:42:42.231Z,4.15
2022-10-18T12:45:18.172Z,1.63
2022-10-18T12:47:45.266Z,5.00
2022-10-18T12:50:27.674Z,6.75
2022-10-18T12:53:03.627Z,5.90
2022-10-18T12:55:34.759Z,4.20
2022-10-18T12:58:03.302Z,7.82
2022-10-18T13:00:30.306Z,5.25
2022-10-18T13:03:18.197Z,4.53
2022-10-18T13:05:53.443Z,4.70
2022-10-18T13:08:30.276Z,3.95
2022-10-18T13:11:09.945Z,3.58
2022-10-18T13:13:40.841Z,4.90
2022-10-18T13:16:13.024Z,2.15
2022-10-18T13:19:12.883Z,6.45
2022-10-18T13:22:10.584Z,6.22
2022-10-18T13:24:44.999Z,5.53
2022-10-18T13:27:37.126Z,6.20
2022-10-18T13:30:19.121Z,6.25
2022-10-18T13:33:09.735Z,2.85
2022-10-18T13:35:42.761Z,3.95
2022-10-18T13:38:33.266Z,5.32
2022-10-18T13:41:04.722Z,7.40
2022-10-18T13:43:53.379Z,4.05
2022-10-18T13:46:21.387Z,3.65
2022-10-18T13:48:49.984Z,7.85
2022-10-18T13:51:26.654Z,4.28
2022-10-18T13:54:05.981Z,7.55
2022-10-18T13:56:39.019Z,5.55
2022-10-18T13:59:14.291Z,8.40
2022-10-18T14:01:52.976Z,4.03
2022-10-18T14:04:35.071Z,5.55
2022-10-18T14:07:04.190Z,3.47
2022-10-18T14:09:48.912Z,4.22
2022-10-18T14:12:43.482Z,7.55
2022-10-18T14:15:17.603Z,6.68
2022-10-18T14:17:47.489Z,8.40
2022-10-18T14:20:17.929Z,6.80
2022-10-18T14:23:17.746Z,6.75
2022-10-18T14:25:45.162Z,6.60
2022-10-18T14:28:31.504Z,7.13
2022-10-18T14:31:16.715Z,6.85
2022-10-18T14:33:46.707Z,6.15
2022-10-18T14:36:15.617Z,10.88
2022-10-18T14:38:54.655Z,12.38
2022-10-18T14:41:27.732Z,6.78
2022-10-18T14:44:18.405Z,5.35
2022-10-18T14:46:46.759Z,5.47
2022-10-18T14:49:15.460Z,5.60
2022-10-18T14:51:44.949Z,8.40
2022-10-18T14:54:17.395Z,7.88
2022-10-18T14:56:44.718Z,8.25
2022-10-18T14:59:21.071Z,5.40
2022-10-18T15:02:14.059Z,5.82
2022-10-18T15:04:43.995Z,9.07
2022-10-18T15:07:16.281Z,8.20
2022-10-18T15:09:44.495Z,5.70
2022-10-18T15:12:14.643Z,7.30
2022-10-18T15:14:43.191Z,5.05
2022-10-18T15:17:22.461Z,5.55
2022-10-18T15:22:34.212Z,7.35
2022-10-18T15:25:11.435Z,6.60
2022-10-18T15:27:39.702Z,6.88
2022-10-18T15:30:08.547Z,10.77
2022-10-18T15:32:37.651Z,7.85
2022-10-18T15:35:09.179Z,4.03
2022-10-18T15:37:38.698Z,4.43
2022-10-18T15:40:24.062Z,6.07
2022-10-18T15:42:52.126Z,7.25
2022-10-18T15:45:25.259Z,5.45
2022-10-18T15:48:02.082Z,6.28
2022-10-18T15:50:40.993Z,7.63
2022-10-18T15:53:31.846Z,10.30
2022-10-18T15:56:08.055Z,7.47
2022-10-18T15:58:40.107Z,5.22
2022-10-18T16:01:18.586Z,6.60
2022-10-18T16:03:47.002Z,8.27
2022-10-18T16:06:18.041Z,8.73
2022-10-18T16:08:48.483Z,6.47
2022-10-18T16:11:16.831Z,7.63
2022-10-18T16:13:44.567Z,9.73
2022-10-18T16:16:15.504Z,8.27
2022-10-18T16:18:42.551Z,9.73
2022-10-18T16:21:38.970Z,9.00
2022-10-18T16:24:06.264Z,8.95
2022-10-18T16:26:33.388Z,7.72
2022-10-18T16:29:00.790Z,7.40
2022-10-18T16:31:30.798Z,8.63
2022-10-18T16:33:57.966Z,9.10
2022-10-18T16:36:32.690Z,6.25
2022-10-18T16:39:01.717Z,8.93
2022-10-18T16:41:28.882Z,9.93
2022-10-18T16:43:56.079Z,8.27
2022-10-18T16:46:27.191Z,14.63
2022-10-18T16:48:54.427Z,5.72
2022-10-18T16:51:21.734Z,10.95
2022-10-18T16:53:48.837Z,8.88
2022-10-18T16:56:20.415Z,8.90
2022-10-18T16:58:47.657Z,8.25
2022-10-18T17:01:16.339Z,9.27
2022-10-18T17:03:43.705Z,9.75
2022-10-18T17:06:21.192Z,7.03
2022-10-18T17:08:48.390Z,8.43
2022-10-18T17:11:16.548Z,11.25
2022-10-18T17:13:43.866Z,8.93
2022-10-18T17:16:21.973Z,8.30
2022-10-18T17:18:49.139Z,9.75
2022-10-18T17:21:16.202Z,7.45
2022-10-18T17:23:43.342Z,8.27
2022-10-18T17:26:27.786Z,13.43
2022-10-18T17:28:56.073Z,10.25
2022-10-18T17:31:23.327Z,10.35
2022-10-18T17:33:50.427Z,11.20
2022-10-18T17:36:17.480Z,9.98
2022-10-18T17:38:46.669Z,11.52
2022-10-18T17:41:13.707Z,11.25
2022-10-18T17:43:41.270Z,9.98
2022-10-18T17:46:08.392Z,13.75
2022-10-18T17:48:35.434Z,14.10
2022-10-18T17:51:07.703Z,13.73
2022-10-18T17:53:34.840Z,14.82
2022-10-18T17:56:02.981Z,12.05
2022-10-18T17:58:30.506Z,15.07
2022-10-18T18:00:57.665Z,12.55
2022-10-18T18:03:24.741Z,14.20
2022-10-18T18:05:51.785Z,21.15
2022-10-18T18:08:18.932Z,13.02
2022-10-18T18:10:46.095Z,16.75
2022-10-18T18:13:16.256Z,17.27
2022-10-18T18:15:46.044Z,15.40
2022-10-18T18:18:13.110Z,14.88
2022-10-18T18:20:40.145Z,13.45
2022-10-18T18:23:07.185Z,14.65
2022-10-18T18:25:34.222Z,17.17
2022-10-18T18:28:06.595Z,13.27
2022-10-18T18:30:34.671Z,18.55
2022-10-18T18:33:01.845Z,15.95
2022-10-18T18:35:28.915Z,15.45
2022-10-18T18:37:55.971Z,15.50
2022-10-18T18:40:23.785Z,15.02
2022-10-18T18:43:07.055Z,17.08
2022-10-18T18:45:38.455Z,16.73
2022-10-18T18:48:05.628Z,16.92
2022-10-18T18:50:35.038Z,16.45
2022-10-18T18:53:02.094Z,15.60
2022-10-18T18:55:29.157Z,15.55
2022-10-18T18:57:56.202Z,17.13
2022-10-18T19:00:23.287Z,18.98
2022-10-18T19:02:50.329Z,18.45
2022-10-18T19:05:17.550Z,21.60
2022-10-18T19:07:44.664Z,15.48
2022-10-18T19:10:11.703Z,16.70
2022-10-18T19:12:38.882Z,15.10
2022-10-18T19:15:06.142Z,16.80
2022-10-18T19:17:33.476Z,18.05
2022-10-18T19:20:01.098Z,14.60
2022-10-18T19:22:28.209Z,14.05
2022-10-18T19:24:55.282Z,15.68
2022-10-18T19:27:22.424Z,17.30
2022-10-18T19:29:49.510Z,15.80
2022-10-18T19:32:18.564Z,21.00
2022-10-18T19:34:45.658Z,14.13
2022-10-18T19:37:13.213Z,16.83
2022-10-18T19:39:40.317Z,16.52
2022-10-18T19:42:19.229Z,18.15
2022-10-18T19:44:49.851Z,19.52
2022-10-18T19:47:16.921Z,18.60
2022-10-18T19:49:44.171Z,17.85
2022-10-18T19:52:12.285Z,17.95
2022-10-18T19:54:39.577Z,20.95
2022-10-18T19:57:06.898Z,19.35
2022-10-18T19:59:35.825Z,19.35
2022-10-18T20:02:04.586Z,15.07
2022-10-18T20:04:34.475Z,21.38
2022-10-18T20:07:02.638Z,23.10
2022-10-18T20:09:29.980Z,21.40
2022-10-18T20:11:57.038Z,25.42
2022-10-18T20:14:24.172Z,21.27
2022-10-18T20:16:51.315Z,19.35
2022-10-18T20:19:18.407Z,17.60
2022-10-18T20:21:45.551Z,17.90
2022-10-18T20:24:12.732Z,18.10
2022-10-18T20:26:39.902Z,17.08
2022-10-18T20:29:07.894Z,19.10
2022-10-18T20:31:38.218Z,19.17
2022-10-18T20:34:06.811Z,20.67
2022-10-18T20:36:34.436Z,16.67
2022-10-18T20:39:01.811Z,19.13
2022-10-18T20:41:30.499Z,19.55
2022-10-18T20:44:01.812Z,18.58
2022-10-18T20:46:33.018Z,22.33
2022-10-18T20:49:00.164Z,24.77
2022-10-18T20:51:27.477Z,19.25
2022-10-18T20:53:55.006Z,21.30
2022-10-18T20:56:23.620Z,19.60
2022-10-18T20:58:51.921Z,15.30
2022-10-18T21:01:26.117Z,18.40
2022-10-18T21:03:54.229Z,20.00
2022-10-18T21:06:22.743Z,16.30
2022-10-18T21:08:56.803Z,20.55
2022-10-18T21:11:24.319Z,21.38
2022-10-18T21:13:55.503Z,21.08
2022-10-18T21:16:22.628Z,22.63
2022-10-18T21:18:49.982Z,17.58
2022-10-18T21:21:18.300Z,19.92
2022-10-18T21:23:45.890Z,24.60
2022-10-18T21:26:16.573Z,19.40
2022-10-18T21:28:43.846Z,23.05
2022-10-18T21:31:15.993Z,19.50
2022-10-18T21:33:43.403Z,17.65
2022-10-18T21:36:10.679Z,18.23
2022-10-18T21:38:38.052Z,21.48
2022-10-18T21:41:09.691Z,17.70
2022-10-18T21:43:37.464Z,18.15
2022-10-18T21:46:04.539Z,21.02
2022-10-18T21:48:31.578Z,19.83
2022-10-18T21:51:02.798Z,16.15
2022-10-18T21:53:29.850Z,21.38
2022-10-18T21:55:56.934Z,18.13
2022-10-18T21:58:23.972Z,16.45
2022-10-18T22:00:52.724Z,20.35
2022-10-18T22:03:24.738Z,19.13
2022-10-18T22:06:01.979Z,20.02
2022-10-18T22:08:29.727Z,16.65
2022-10-18T22:11:00.492Z,19.58
2022-10-18T22:13:28.495Z,16.83
2022-10-18T22:15:55.697Z,17.73
2022-10-18T22:18:22.758Z,16.90
2022-10-18T22:20:56.229Z,20.10
2022-10-18T22:23:23.339Z,16.38
2022-10-18T22:25:50.437Z,17.15
2022-10-18T22:28:17.563Z,17.42
2022-10-18T22:30:44.667Z,15.07
2022-10-18T22:33:11.690Z,18.52
2022-10-18T22:35:38.748Z,20.13
2022-10-18T22:38:05.786Z,14.23
2022-10-18T22:40:32.995Z,17.00
2022-10-18T22:43:00.021Z,17.08
2022-10-18T22:45:27.084Z,17.88
2022-10-18T22:47:54.185Z,18.00
2022-10-18T22:50:21.279Z,17.60
2022-10-18T22:52:49.694Z,16.05
2022-10-18T22:55:19.674Z,20.00
2022-10-18T22:57:46.715Z,17.30
2022-10-18T23:00:13.982Z,16.42
2022-10-18T23:02:41.066Z,16.73
2022-10-18T23:05:08.203Z,15.05
2022-10-18T23:07:35.226Z,15.23
2022-10-18T23:10:02.361Z,15.38
2022-10-18T23:12:29.416Z,15.75
2022-10-18T23:14:56.455Z,13.73
2022-10-18T23:17:23.489Z,14.55
2022-10-18T23:19:50.522Z,16.40
2022-10-18T23:22:21.098Z,15.93
2022-10-18T23:24:48.184Z,13.55
2022-10-18T23:27:15.267Z,13.52
2022-10-18T23:29:42.302Z,14.90
2022-10-18T23:32:09.401Z,13.40
2022-10-18T23:34:36.435Z,15.38
2022-10-18T23:37:03.499Z,13.73
2022-10-18T23:39:30.552Z,12.43
2022-10-18T23:41:57.592Z,14.73
2022-10-18T23:44:24.631Z,13.13
2022-10-18T23:46:51.655Z,15.57
2022-10-18T23:49:18.701Z,13.10
2022-10-18T23:51:45.736Z,19.50
2022-10-18T23:54:12.816Z,14.32
2022-10-18T23:56:39.834Z,14.10
2022-10-18T23:59:06.862Z,11.63
